Time;durP1;ratioP1;P1;durP2;ratioP2;P2;SDS_P1;SDS_P2;PMS_P1;PMS_P2;Temp;Humidity;BMP_temperature;BMP_pressure;BME280_temperature;BME280_humidity;BME280_pressure;Samples;Min_cycle;Max_cycle;Signal;HPM_P1;HPM_P2
2023/05/10 00:01:39;;;;;;;12.10;5.50;;;;;;;10.49;49.87;99352.75;223425;183;137732;-71
2023/05/10 00:06:47;;;;;;;8.30;4.40;;;;;;;10.41;49.99;99348.70;223752;183;145575;-69
2023/05/10 00:11:51;;;;;;;11.50;4.90;;;;;;;10.35;49.82;99347.48;222882;182;138402;-68
2023/05/10 00:16:54;;;;;;;10.50;5.40;;;;;;;10.28;50.07;99345.20;223738;181;136681;-68
2023/05/10 00:21:58;;;;;;;8.40;4.50;;;;;;;10.21;50.35;99344.86;223783;182;145234;-67
2023/05/10 00:27:03;;;;;;;8.80;5.20;;;;;;;10.13;50.23;99344.95;223755;182;139032;-68
2023/05/10 00:32:07;;;;;;;9.60;4.90;;;;;;;10.07;50.54;99339.92;223888;182;149896;-68
2023/05/10 00:37:11;;;;;;;8.90;4.90;;;;;;;10.02;50.69;99334.94;223736;182;145098;-68
2023/05/10 00:42:14;;;;;;;9.00;5.20;;;;;;;10.02;50.66;99330.84;222932;182;138406;-68
2023/05/10 00:47:18;;;;;;;7.80;4.80;;;;;;;10.03;50.68;99325.11;223599;182;135993;-68
2023/05/10 00:52:23;;;;;;;6.70;4.40;;;;;;;10.02;50.86;99324.09;221454;182;146713;-68
2023/05/10 00:57:27;;;;;;;7.80;5.00;;;;;;;9.96;50.87;99321.95;223716;182;138266;-67
2023/05/10 01:02:31;;;;;;;7.20;4.30;;;;;;;9.94;51.04;99318.16;223759;182;136204;-68
2023/05/10 01:07:35;;;;;;;7.90;4.90;;;;;;;9.90;51.07;99314.32;223889;182;145567;-68
2023/05/10 01:12:42;;;;;;;9.40;4.70;;;;;;;9.89;51.03;99313.14;223827;182;138375;-68
2023/05/10 01:17:47;;;;;;;8.40;4.90;;;;;;;9.83;51.29;99311.71;223813;182;136937;-68
2023/05/10 01:23:14;;;;;;;8.30;4.80;;;;;;;9.76;51.62;99311.02;223740;182;146446;-68
2023/05/10 01:28:37;;;;;;;7.40;4.60;;;;;;;9.65;51.87;99307.48;223809;182;139795;-68
2023/05/10 01:34:01;;;;;;;9.90;4.10;;;;;;;9.60;52.08;99306.40;223726;182;136739;-67
2023/05/10 01:39:15;;;;;;;6.20;4.30;;;;;;;9.50;52.33;99306.55;223737;182;145200;-70
2023/05/10 01:44:22;;;;;;;5.90;4.10;;;;;;;9.45;52.61;99305.91;223766;182;138636;-69
2023/05/10 01:49:29;;;;;;;8.10;4.30;;;;;;;9.39;52.72;99303.80;223457;181;136829;-68
2023/05/10 01:54:33;;;;;;;9.80;4.40;;;;;;;9.36;52.92;99301.98;223520;182;145633;-68
2023/05/10 01:59:42;;;;;;;6.70;4.30;;;;;;;9.32;52.90;99296.91;222384;182;138927;-68
2023/05/10 02:04:55;;;;;;;7.90;4.50;;;;;;;9.23;53.16;99300.52;222676;182;136352;-68
2023/05/10 02:10:00;;;;;;;7.50;4.50;;;;;;;9.19;53.23;99295.64;223236;181;146334;-67
2023/05/10 02:15:06;;;;;;;9.80;4.50;;;;;;;9.19;53.21;99289.77;222242;182;138678;-67
2023/05/10 02:20:12;;;;;;;7.60;4.20;;;;;;;9.18;53.13;99284.68;223417;182;139477;-67
2023/05/10 02:25:19;;;;;;;9.30;4.30;;;;;;;9.16;53.13;99282.13;223709;182;147059;-66
2023/05/10 02:30:28;;;;;;;8.70;4.40;;;;;;;9.16;53.20;99275.26;223007;182;138451;-67
2023/05/10 02:35:33;;;;;;;12.60;4.40;;;;;;;9.12;53.37;99273.15;223748;181;136603;-67
2023/05/10 02:40:38;;;;;;;6.20;4.30;;;;;;;9.07;53.61;99270.75;223934;182;145327;-67
2023/05/10 02:45:43;;;;;;;5.90;4.10;;;;;;;9.03;53.76;99274.00;223827;182;139597;-68
2023/05/10 02:50:51;;;;;;;7.70;4.80;;;;;;;9.00;53.78;99273.43;223653;182;137029;-68
2023/05/10 02:56:00;;;;;;;8.40;3.90;;;;;;;8.97;53.87;99276.61;223014;182;145285;-68
2023/05/10 03:01:04;;;;;;;5.90;4.00;;;;;;;8.93;53.90;99271.11;223681;182;138777;-68
2023/05/10 03:06:09;;;;;;;5.90;3.90;;;;;;;8.91;53.99;99265.03;223809;182;136804;-67
2023/05/10 03:11:28;;;;;;;7.10;4.30;;;;;;;8.86;54.24;99270.10;223570;182;145702;-67
2023/05/10 03:16:42;;;;;;;7.40;4.40;;;;;;;8.83;54.18;99273.41;223845;182;138756;-70
2023/05/10 03:21:51;;;;;;;6.00;4.00;;;;;;;8.84;54.33;99271.39;223823;182;138369;-68
2023/05/10 03:26:58;;;;;;;7.90;4.30;;;;;;;8.89;54.35;99270.82;223754;182;145926;-68
2023/05/10 03:32:02;;;;;;;9.30;4.20;;;;;;;8.90;54.29;99270.38;220225;182;139106;-69
2023/05/10 03:37:07;;;;;;;7.70;4.40;;;;;;;8.86;54.45;99264.59;223766;182;136468;-68
2023/05/10 03:42:11;;;;;;;10.40;4.30;;;;;;;8.85;54.61;99266.78;223799;183;146031;-68
2023/05/10 03:47:15;;;;;;;7.70;4.00;;;;;;;8.85;54.78;99262.36;223822;182;138678;-68
2023/05/10 03:52:19;;;;;;;9.00;4.30;;;;;;;8.90;54.90;99264.02;223581;183;136255;-71
2023/05/10 03:57:23;;;;;;;9.10;4.10;;;;;;;8.96;54.76;99266.17;223833;182;145340;-69
2023/05/10 04:02:27;;;;;;;6.80;4.20;;;;;;;9.04;54.58;99268.25;222278;181;138972;-68
2023/05/10 04:07:30;;;;;;;5.90;4.10;;;;;;;9.09;54.44;99267.63;223718;182;136483;-66
2023/05/10 04:12:34;;;;;;;6.20;3.80;;;;;;;9.16;54.34;99269.93;223742;181;145698;-68
2023/05/10 04:17:37;;;;;;;10.10;4.30;;;;;;;9.20;54.54;99267.92;222488;181;138239;-68
2023/05/10 04:22:40;;;;;;;5.60;3.60;;;;;;;9.28;54.65;99270.21;223856;181;137376;-68
2023/05/10 04:27:44;;;;;;;11.20;4.00;;;;;;;9.36;54.43;99272.23;223798;181;144491;-67
2023/05/10 04:32:47;;;;;;;8.80;3.80;;;;;;;9.45;54.43;99270.49;223765;182;139475;-71
2023/05/10 04:37:51;;;;;;;11.00;4.40;;;;;;;9.56;54.34;99272.59;223729;181;136535;-75
2023/05/10 04:42:54;;;;;;;5.80;3.90;;;;;;;9.65;54.35;99268.56;223714;181;145466;-74
2023/05/10 04:47:58;;;;;;;12.00;4.40;;;;;;;9.72;54.46;99271.17;223823;181;140478;-74
2023/05/10 04:53:02;;;;;;;9.00;4.70;;;;;;;9.80;54.71;99265.06;223702;181;137016;-69
2023/05/10 04:58:05;;;;;;;7.40;4.40;;;;;;;9.91;54.62;99268.16;223328;181;145744;-76
2023/05/10 05:03:09;;;;;;;145.20;98.10;;;;;;;10.08;54.49;99263.86;223240;181;138443;-73
2023/05/10 05:08:13;;;;;;;18.80;11.30;;;;;;;10.30;54.26;99259.64;223844;181;137163;-72
2023/05/10 05:13:16;;;;;;;55.30;40.50;;;;;;;10.41;53.80;99252.41;223801;181;145391;-75
2023/05/10 05:18:20;;;;;;;9.60;5.90;;;;;;;10.56;53.97;99250.31;223616;177;138412;-73
2023/05/10 05:23:24;;;;;;;7.80;4.10;;;;;;;10.69;53.80;99249.92;223866;182;136490;-74
2023/05/10 05:28:32;;;;;;;8.60;4.10;;;;;;;10.78;53.37;99245.64;223665;182;146284;-76
2023/05/10 05:33:36;;;;;;;10.50;4.40;;;;;;;10.89;53.50;99246.77;223778;181;138367;-79
2023/05/10 05:38:41;;;;;;;7.20;4.20;;;;;;;11.06;53.42;99247.50;223707;181;137063;-70
2023/05/10 05:43:45;;;;;;;7.00;3.90;;;;;;;11.29;53.09;99246.45;223770;181;145154;-71
2023/05/10 05:48:48;;;;;;;9.50;4.10;;;;;;;11.47;53.06;99246.59;223752;181;138167;-73
2023/05/10 05:53:52;;;;;;;8.60;3.80;;;;;;;11.57;52.88;99248.61;222383;182;137281;-73
2023/05/10 05:58:56;;;;;;;8.50;4.20;;;;;;;11.65;52.74;99252.02;223759;181;145281;-71
2023/05/10 06:04:03;;;;;;;10.80;4.30;;;;;;;11.73;52.68;99251.53;223848;181;138091;-71
2023/05/10 06:09:13;;;;;;;14.00;4.60;;;;;;;11.86;52.48;99253.04;223110;181;136496;-72
2023/05/10 06:14:16;;;;;;;79.00;61.20;;;;;;;12.00;52.25;99254.25;223813;181;146113;-72
2023/05/10 06:25:44;;;;;;;7.20;4.20;;;;;;;12.31;51.92;99256.55;224002;182;136492;-71
2023/05/10 06:30:48;;;;;;;11.20;4.70;;;;;;;12.40;51.68;99254.88;223671;181;145563;-71
2023/05/10 06:35:51;;;;;;;11.90;5.40;;;;;;;12.53;51.49;99255.24;223740;181;139168;-70
2023/05/10 06:40:55;;;;;;;10.80;7.60;;;;;;;12.68;51.05;99253.73;223752;181;137497;-68
2023/05/10 06:45:58;;;;;;;9.90;4.60;;;;;;;12.80;51.08;99253.95;223733;182;145212;-73
2023/05/10 06:51:02;;;;;;;223.40;154.20;;;;;;;12.94;51.21;99252.12;223807;181;138333;-74
2023/05/10 06:56:06;;;;;;;26.90;11.10;;;;;;;13.13;51.33;99247.98;223837;181;137575;-73
2023/05/10 07:01:09;;;;;;;8.70;4.40;;;;;;;13.26;50.73;99252.23;223751;182;144991;-73
2023/05/10 07:06:13;;;;;;;10.30;4.30;;;;;;;13.38;50.30;99248.23;223775;181;138812;-73
2023/05/10 07:18:00;;;;;;;7.10;3.90;;;;;;;13.58;50.28;99245.75;223615;215;147091;-74
2023/05/10 07:23:04;;;;;;;10.50;4.40;;;;;;;13.70;50.13;99239.55;222605;182;138729;-73
2023/05/10 07:28:07;;;;;;;6.30;4.00;;;;;;;13.85;49.79;99246.13;223448;183;137675;-72
2023/05/10 07:33:16;;;;;;;6.90;3.80;;;;;;;13.99;49.61;99242.64;223788;181;147499;-74
2023/05/10 07:38:24;;;;;;;7.20;3.30;;;;;;;14.14;49.48;99242.40;223472;182;139043;-75
2023/05/10 07:43:27;;;;;;;6.50;3.90;;;;;;;14.27;49.19;99241.07;223117;181;136721;-71
2023/05/10 07:48:31;;;;;;;54.00;38.10;;;;;;;14.45;49.32;99228.13;223720;181;147232;-72
2023/05/10 07:53:35;;;;;;;9.30;4.50;;;;;;;14.59;49.09;99227.85;222843;181;138711;-71
2023/05/10 07:58:38;;;;;;;11.40;3.60;;;;;;;14.71;48.76;99223.88;223761;181;136877;-71
2023/05/10 08:03:41;;;;;;;12.60;4.10;;;;;;;14.88;47.80;99220.44;223106;181;146929;-73
2023/05/10 08:08:49;;;;;;;10.70;3.60;;;;;;;15.08;46.84;99213.02;221939;181;138494;-71
2023/05/10 08:13:52;;;;;;;5.30;3.60;;;;;;;15.24;46.35;99211.02;220654;181;136705;-71
2023/05/10 08:18:56;;;;;;;9.00;4.10;;;;;;;15.41;45.62;99207.02;221972;179;147618;-72
2023/05/10 08:24:00;;;;;;;5.30;3.10;;;;;;;15.60;45.13;99207.49;223710;181;139208;-72
2023/05/10 08:29:05;;;;;;;77.70;61.90;;;;;;;15.80;44.67;99198.40;223052;182;136932;-71
2023/05/10 08:34:11;;;;;;;6.40;4.20;;;;;;;15.99;45.92;99198.04;221456;181;147067;-72
2023/05/10 08:39:15;;;;;;;9.40;3.60;;;;;;;16.20;44.23;99192.08;223226;181;138462;-72
2023/05/10 08:44:32;;;;;;;8.40;2.70;;;;;;;16.40;44.07;99197.23;223443;183;137429;-73
2023/05/10 08:49:41;;;;;;;5.80;2.40;;;;;;;16.57;41.43;99194.19;223816;181;147539;-68
2023/05/10 08:54:45;;;;;;;6.50;2.60;;;;;;;16.72;40.88;99196.52;223792;181;138851;-69
2023/05/10 08:59:48;;;;;;;8.60;4.00;;;;;;;16.86;39.97;99194.21;221232;182;137503;-69
2023/05/10 09:04:52;;;;;;;7.90;3.20;;;;;;;16.97;40.26;99193.42;222891;181;148135;-68
2023/05/10 09:09:57;;;;;;;9.40;2.80;;;;;;;17.10;39.08;99190.05;221783;181;139153;-70
2023/05/10 09:15:02;;;;;;;3.20;2.10;;;;;;;17.27;39.34;99190.14;221958;181;137359;-70
2023/05/10 09:20:07;;;;;;;6.50;2.40;;;;;;;17.44;38.52;99191.91;223731;181;148130;-71
2023/05/10 09:25:16;;;;;;;7.90;2.40;;;;;;;17.57;37.78;99187.55;223781;181;138786;-71
2023/05/10 09:30:24;;;;;;;36.00;25.40;;;;;;;17.71;37.28;99181.92;223774;182;137968;-71
2023/05/10 09:35:30;;;;;;;8.80;3.80;;;;;;;17.98;38.99;99186.89;223098;181;147699;-74
2023/05/10 09:40:33;;;;;;;7.30;2.60;;;;;;;18.20;37.82;99180.95;223611;181;140362;-71
2023/05/10 09:45:37;;;;;;;11.80;3.00;;;;;;;18.31;36.69;99179.64;223733;181;136486;-71
2023/05/10 09:50:41;;;;;;;7.80;2.50;;;;;;;18.42;36.16;99179.16;223716;181;148431;-72
2023/05/10 09:55:46;;;;;;;20.20;9.20;;;;;;;18.61;36.70;99180.55;223666;181;138608;-73
2023/05/10 10:00:53;;;;;;;6.90;3.90;;;;;;;18.78;37.13;99174.88;223706;181;136827;-82
2023/05/10 10:05:56;;;;;;;10.80;6.10;;;;;;;18.85;37.60;99174.66;223783;182;148113;-77
2023/05/10 10:11:01;;;;;;;3.30;2.30;;;;;;;19.06;35.39;99171.70;222977;181;140541;-78
2023/05/10 10:16:05;;;;;;;5.30;2.30;;;;;;;19.16;35.42;99162.83;223785;181;136424;-77
2023/05/10 10:21:09;;;;;;;7.70;3.20;;;;;;;19.34;34.38;99159.83;223725;181;147092;-77
2023/05/10 10:26:13;;;;;;;7.90;2.00;;;;;;;19.57;34.55;99154.21;223711;181;139503;-77
2023/05/10 10:31:39;;;;;;;8.80;2.50;;;;;;;19.82;34.37;99146.88;223732;181;136429;-78
2023/05/10 10:36:46;;;;;;;5.80;2.10;;;;;;;19.79;33.10;99147.43;223585;181;147161;-79
2023/05/10 10:41:59;;;;;;;5.30;2.20;;;;;;;19.86;33.86;99144.01;223809;181;138773;-78
2023/05/10 10:47:27;;;;;;;3.40;2.00;;;;;;;20.01;33.81;99142.38;223648;182;136882;-78
2023/05/10 10:57:46;;;;;;;19.10;13.50;;;;;;;20.27;30.32;99129.83;221934;193;665493;-65
2023/05/10 11:02:56;;;;;;;4.90;2.60;;;;;;;20.48;31.49;99124.82;223179;187;137047;-64
2023/05/10 11:08:09;;;;;;;2.50;1.40;;;;;;;20.80;29.86;99120.45;223669;184;144762;-64
2023/05/10 11:13:13;;;;;;;5.50;1.80;;;;;;;21.08;30.24;99118.30;223600;183;139253;-65
2023/05/10 11:18:24;;;;;;;3.50;2.00;;;;;;;21.33;28.38;99113.52;223714;183;139184;-65
2023/05/10 11:23:51;;;;;;;3.30;2.70;;;;;;;21.47;29.97;99106.48;223578;182;143186;-66
2023/05/10 11:28:55;;;;;;;6.00;2.10;;;;;;;21.81;29.66;99102.83;223571;183;139037;-65
2023/05/10 11:34:01;;;;;;;4.90;2.20;;;;;;;22.02;28.49;99102.73;223732;183;136711;-65
2023/05/10 11:39:05;;;;;;;3.40;2.30;;;;;;;22.16;28.77;99099.70;223681;183;145595;-65
2023/05/10 11:44:09;;;;;;;4.30;2.00;;;;;;;22.23;28.25;99092.34;223623;184;140865;-65
2023/05/10 11:49:13;;;;;;;9.30;2.20;;;;;;;22.39;28.47;99090.94;223582;184;136809;-65
2023/05/10 11:54:16;;;;;;;5.00;2.20;;;;;;;22.51;28.35;99092.61;223632;183;145287;-65
2023/05/10 11:59:19;;;;;;;4.20;1.90;;;;;;;22.52;28.41;99088.91;223500;183;140172;-65
2023/05/10 12:04:22;;;;;;;5.60;1.80;;;;;;;22.70;28.59;99083.87;223659;183;136291;-65
2023/05/10 12:09:30;;;;;;;9.40;2.20;;;;;;;22.98;27.33;99083.02;223545;184;147454;-64
2023/05/10 12:14:50;;;;;;;4.40;1.50;;;;;;;23.14;27.28;99072.20;223517;184;140476;-65
2023/05/10 12:19:53;;;;;;;12.70;2.60;;;;;;;23.18;26.43;99072.98;223516;184;136686;-65
2023/05/10 12:24:58;;;;;;;5.00;1.70;;;;;;;23.09;26.42;99080.20;223555;184;147092;-64
2023/05/10 12:30:02;;;;;;;2.10;1.70;;;;;;;23.14;26.89;99070.89;223695;183;139332;-65
2023/05/10 12:35:06;;;;;;;37.00;27.50;;;;;;;23.30;27.43;99061.98;223708;183;159218;-64
2023/05/10 12:40:11;;;;;;;14.70;9.00;;;;;;;23.49;27.18;99058.81;223650;183;146150;-63
2023/05/10 12:45:14;;;;;;;7.10;1.80;;;;;;;23.62;27.47;99056.01;223585;183;139910;-63
2023/05/10 12:50:18;;;;;;;5.60;2.10;;;;;;;23.75;26.12;99054.90;223444;184;136545;-61
2023/05/10 12:55:21;;;;;;;5.10;2.30;;;;;;;23.85;26.28;99048.02;223636;216;147310;-62
2023/05/10 13:00:25;;;;;;;3.90;1.90;;;;;;;24.11;26.55;99039.05;223168;194;139006;-62
2023/05/10 13:05:32;;;;;;;4.80;1.90;;;;;;;24.22;24.90;99038.63;223664;216;136519;-62
2023/05/10 13:10:35;;;;;;;8.00;1.90;;;;;;;24.14;24.75;99033.83;223616;209;145242;-62
2023/05/10 13:40:20;;;;;;;5.90;2.30;;;;;;;24.04;24.86;99020.02;220322;217;666622;-63
2023/05/10 13:45:23;;;;;;;2.60;1.50;;;;;;;23.94;24.93;99010.93;223078;220;135836;-64
2023/05/10 13:50:27;;;;;;;8.70;1.90;;;;;;;23.80;25.69;98999.93;223611;204;143258;-63
2023/05/10 13:55:31;;;;;;;3.40;2.00;;;;;;;23.82;25.08;98998.35;223417;216;139474;-64
2023/05/10 14:00:35;;;;;;;2.30;1.60;;;;;;;23.86;24.67;98991.80;223537;197;137005;-63
2023/05/10 14:05:38;;;;;;;10.20;2.00;;;;;;;23.85;25.02;98988.48;223588;216;143398;-63
2023/05/10 14:10:42;;;;;;;4.60;1.80;;;;;;;23.84;25.52;98985.96;223438;190;138208;-63
2023/05/10 14:15:45;;;;;;;3.50;1.80;;;;;;;23.84;25.42;98987.45;223518;193;136381;-63
2023/05/10 14:20:49;;;;;;;3.20;1.70;;;;;;;23.69;25.29;98983.66;223770;183;143986;-62
2023/05/10 14:25:53;;;;;;;5.20;2.20;;;;;;;23.46;25.15;98983.72;223806;214;139034;-63
2023/05/10 14:30:56;;;;;;;4.50;1.80;;;;;;;23.21;25.69;98979.58;223826;182;136201;-62
2023/05/10 14:35:59;;;;;;;3.70;1.80;;;;;;;23.05;26.25;98974.73;224009;203;145878;-63
2023/05/10 14:41:03;;;;;;;6.30;2.00;;;;;;;22.86;26.22;98974.89;223689;191;138942;-61
2023/05/10 14:46:06;;;;;;;4.50;1.70;;;;;;;22.66;26.08;98975.96;223627;187;137213;-62
2023/05/10 14:51:10;;;;;;;4.80;1.70;;;;;;;22.46;26.63;98971.67;223728;181;145408;-63
2023/05/10 14:56:15;;;;;;;7.10;1.70;;;;;;;22.22;28.13;98979.30;223448;181;138477;-63
2023/05/10 15:01:18;;;;;;;317.90;254.80;;;;;;;21.96;28.14;98977.27;223582;183;137340;-63
2023/05/10 15:06:31;;;;;;;9.10;5.40;;;;;;;21.84;28.40;98978.88;223514;212;145726;-62
2023/05/10 15:11:36;;;;;;;5.60;2.10;;;;;;;21.79;28.68;98969.92;223516;205;138666;-64
2023/05/10 15:16:39;;;;;;;3.90;1.80;;;;;;;21.70;28.40;98972.33;223650;192;139841;-61
2023/05/10 15:21:44;;;;;;;9.30;2.00;;;;;;;21.57;28.42;98972.32;223675;182;146821;-61
2023/05/10 15:26:47;;;;;;;13.00;2.70;;;;;;;21.47;28.66;98966.91;223586;205;138349;-62
2023/05/10 15:31:51;;;;;;;9.10;2.10;;;;;;;21.45;28.62;98965.86;223541;200;137290;-63
2023/05/10 15:42:32;;;;;;;18.70;2.40;;;;;;;21.34;29.50;98964.53;221599;213;665851;-70
2023/05/10 15:47:35;;;;;;;20.80;4.00;;;;;;;21.27;28.72;98965.79;223524;187;135849;-69
2023/05/10 15:52:39;;;;;;;8.80;2.20;;;;;;;21.29;29.28;98967.17;223532;214;145639;-68
2023/05/10 15:57:43;;;;;;;11.30;2.10;;;;;;;21.35;29.14;98971.63;223490;183;139052;-68
2023/05/10 16:02:47;;;;;;;5.90;2.20;;;;;;;21.34;28.67;98966.27;222993;184;136212;-68
2023/05/10 16:07:50;;;;;;;8.50;1.90;;;;;;;21.26;28.51;98965.65;222594;194;143335;-68
2023/05/10 16:12:55;;;;;;;4.20;1.70;;;;;;;21.21;28.61;98969.98;223427;205;138309;-67
2023/05/10 16:17:59;;;;;;;4.90;2.00;;;;;;;21.09;29.16;98970.92;223579;216;137640;-68
2023/05/10 16:23:05;;;;;;;3.40;2.10;;;;;;;20.92;29.31;98972.85;223452;189;143457;-68
2023/05/10 16:28:10;;;;;;;8.70;1.90;;;;;;;20.70;29.39;98975.96;223530;193;142142;-69
2023/05/10 16:39:27;;;;;;;12.20;2.20;;;;;;;20.31;29.61;98983.77;223470;216;145657;-68
2023/05/10 16:44:32;;;;;;;14.60;2.30;;;;;;;20.16;30.67;98985.39;223561;195;138772;-73
2023/05/10 16:49:36;;;;;;;18.60;2.50;;;;;;;20.05;31.17;98989.19;223418;194;136394;-68
2023/05/10 16:54:39;;;;;;;6.50;2.20;;;;;;;19.99;31.24;98991.23;223562;194;145720;-68
2023/05/10 16:59:43;;;;;;;17.20;3.20;;;;;;;19.96;30.42;98991.77;221985;193;139018;-70
2023/05/10 17:04:47;;;;;;;21.30;5.70;;;;;;;19.89;31.34;98995.90;223383;197;137427;-69
2023/05/10 17:09:51;;;;;;;6.40;2.20;;;;;;;19.78;30.94;98999.67;223564;195;145366;-69
2023/05/10 17:14:55;;;;;;;13.10;2.00;;;;;;;19.62;30.95;99001.05;223616;216;138337;-70
2023/05/10 17:19:59;;;;;;;10.10;2.50;;;;;;;19.51;30.92;99001.83;223562;196;136702;-70
2023/05/10 17:25:03;;;;;;;3.60;1.90;;;;;;;19.41;31.18;99004.98;223565;188;144983;-70
2023/05/10 17:30:08;;;;;;;5.80;2.40;;;;;;;19.32;31.64;99013.80;222946;193;139100;-70
2023/05/10 17:35:11;;;;;;;7.50;3.00;;;;;;;19.20;32.61;99018.17;222478;183;136873;-70
2023/05/10 17:40:15;;;;;;;9.50;3.10;;;;;;;19.12;33.01;99020.28;223520;184;146047;-68
2023/05/10 17:45:19;;;;;;;5.50;2.10;;;;;;;19.07;33.36;99027.89;223521;206;138407;-69
2023/05/10 17:50:23;;;;;;;7.20;2.60;;;;;;;19.04;33.56;99033.29;223453;205;136840;-69
2023/05/10 17:55:29;;;;;;;7.10;2.20;;;;;;;18.98;33.69;99041.71;223581;216;145963;-69
2023/05/10 18:00:35;;;;;;;8.10;2.60;;;;;;;18.85;33.96;99046.02;223553;192;139956;-69
2023/05/10 18:05:40;;;;;;;6.70;2.70;;;;;;;18.74;33.93;99056.88;222834;193;136436;-70
2023/05/10 18:10:46;;;;;;;3.90;2.70;;;;;;;18.62;33.62;99064.20;221752;187;146275;-69
2023/05/10 18:15:51;;;;;;;9.40;2.70;;;;;;;18.43;33.39;99066.71;223459;184;139377;-69
2023/05/10 18:20:56;;;;;;;4.40;2.30;;;;;;;18.16;33.76;99075.58;223416;194;136241;-69
2023/05/10 18:26:02;;;;;;;255.30;179.30;;;;;;;17.93;33.93;99077.48;223631;183;146614;-71
2023/05/10 18:31:08;;;;;;;11.30;5.00;;;;;;;17.77;34.24;99089.02;223531;194;139393;-71
2023/05/10 18:36:12;;;;;;;5.90;2.80;;;;;;;17.59;34.18;99095.45;223427;210;137019;-72
2023/05/10 18:41:17;;;;;;;5.80;2.80;;;;;;;17.43;34.51;99102.33;222745;205;145229;-71
2023/05/10 18:46:21;;;;;;;8.10;3.00;;;;;;;17.27;34.73;99107.99;223544;188;138146;-70
2023/05/10 18:51:27;;;;;;;6.30;3.30;;;;;;;17.13;34.55;99106.20;223521;184;136631;-72
2023/05/10 18:56:32;;;;;;;9.30;2.80;;;;;;;17.01;34.70;99110.83;221807;189;146222;-70
2023/05/10 19:01:37;;;;;;;5.00;3.40;;;;;;;16.90;34.92;99120.98;223503;205;138196;-70
2023/05/10 19:06:43;;;;;;;7.90;2.40;;;;;;;16.78;35.00;99123.08;222849;184;137200;-70
2023/05/10 19:11:47;;;;;;;5.70;2.70;;;;;;;16.65;35.18;99128.42;221437;195;146412;-71
2023/05/10 19:16:51;;;;;;;5.50;2.90;;;;;;;16.55;35.17;99133.09;220583;183;138641;-70
2023/05/10 19:21:56;;;;;;;4.60;3.30;;;;;;;16.44;35.27;99134.38;219985;184;137305;-71
2023/05/10 19:27:01;;;;;;;4.10;2.80;;;;;;;16.32;35.38;99136.83;222268;194;148754;-69
2023/05/10 19:32:11;;;;;;;5.60;2.40;;;;;;;16.21;35.50;99137.92;223435;195;138919;-70
2023/05/10 19:37:15;;;;;;;6.90;3.00;;;;;;;16.13;35.90;99141.08;223437;184;137364;-70
2023/05/10 19:42:19;;;;;;;7.40;3.10;;;;;;;16.02;35.94;99141.94;223495;182;145732;-71
2023/05/10 19:47:23;;;;;;;8.10;2.80;;;;;;;15.96;36.15;99147.14;223442;192;138365;-69
2023/05/10 19:52:27;;;;;;;9.40;3.40;;;;;;;15.84;36.36;99144.93;223533;204;137069;-72
2023/05/10 19:57:32;;;;;;;92.60;69.20;;;;;;;15.71;36.65;99151.38;223554;185;146652;-70
2023/05/10 20:02:35;;;;;;;88.50;59.90;;;;;;;15.71;36.86;99151.50;221095;182;140229;-71
2023/05/10 20:07:39;;;;;;;8.10;3.50;;;;;;;15.67;36.77;99155.61;223689;183;137481;-71
2023/05/10 20:12:51;;;;;;;10.40;3.70;;;;;;;15.56;37.01;99156.61;223622;181;145079;-70
2023/05/10 20:17:56;;;;;;;12.40;3.40;;;;;;;15.47;36.98;99158.66;223620;203;138386;-72
2023/05/10 20:23:00;;;;;;;8.10;3.50;;;;;;;15.37;37.26;99158.50;223581;183;136510;-71
2023/05/10 20:28:08;;;;;;;5.20;3.10;;;;;;;15.30;37.14;99162.06;222330;182;145287;-70
2023/05/10 20:33:14;;;;;;;5.40;3.50;;;;;;;15.22;37.46;99165.80;223537;182;139320;-70
2023/05/10 20:38:18;;;;;;;8.10;3.10;;;;;;;15.12;37.81;99167.45;223588;182;137125;-69
2023/05/10 20:43:21;;;;;;;8.90;3.20;;;;;;;15.01;38.15;99160.70;223701;181;145574;-70
2023/05/10 20:48:26;;;;;;;8.00;3.80;;;;;;;14.98;37.93;99162.73;223605;181;138785;-70
2023/05/10 20:53:29;;;;;;;10.30;3.20;;;;;;;14.94;38.26;99165.55;223676;208;137244;-72
2023/05/10 20:58:34;;;;;;;6.60;3.60;;;;;;;14.86;38.49;99162.02;223609;193;145707;-73
2023/05/10 21:03:39;;;;;;;12.00;3.60;;;;;;;14.81;38.70;99162.22;223552;214;138167;-72
2023/05/10 21:08:43;;;;;;;10.20;3.80;;;;;;;14.76;38.76;99163.33;223692;208;136985;-70
2023/05/10 21:13:47;;;;;;;6.90;3.70;;;;;;;14.71;38.77;99163.52;223590;215;145893;-70
2023/05/10 21:18:51;;;;;;;6.50;3.50;;;;;;;14.64;39.00;99163.13;223568;186;139502;-70
2023/05/10 21:23:55;;;;;;;6.80;3.70;;;;;;;14.59;39.49;99165.02;223681;183;136516;-70
2023/05/10 21:28:58;;;;;;;7.70;3.40;;;;;;;14.53;39.45;99168.16;221398;204;145693;-71
2023/05/10 21:34:02;;;;;;;9.00;3.80;;;;;;;14.49;39.57;99164.32;223255;184;141208;-71
2023/05/10 21:39:07;;;;;;;8.50;4.10;;;;;;;14.43;39.68;99167.06;222355;186;136892;-69
2023/05/10 21:44:11;;;;;;;11.60;4.10;;;;;;;14.35;40.17;99170.69;223573;182;146202;-69
2023/05/10 21:49:15;;;;;;;11.80;4.20;;;;;;;14.24;40.53;99170.10;222866;191;138445;-70
2023/05/10 21:54:18;;;;;;;8.50;4.20;;;;;;;14.20;40.89;99170.23;223802;182;136815;-70
2023/05/10 21:59:22;;;;;;;8.80;3.90;;;;;;;14.08;41.13;99173.09;223563;183;146017;-69
2023/05/10 22:04:28;;;;;;;7.20;4.10;;;;;;;13.99;41.50;99173.25;222894;181;139306;-69
2023/05/10 22:09:32;;;;;;;;;;;;;;;13.91;41.75;99175.61;223843;183;136501;-68
2023/05/10 22:14:37;;;;;;;10.10;3.80;;;;;;;13.80;42.16;99182.08;223795;215;145201;-68
2023/05/10 22:19:41;;;;;;;7.90;4.10;;;;;;;13.71;42.37;99187.38;223510;183;139165;-70
2023/05/10 22:24:46;;;;;;;8.10;4.10;;;;;;;13.65;42.59;99190.13;223645;193;137693;-69
2023/05/10 22:29:50;;;;;;;7.60;3.90;;;;;;;13.57;42.88;99193.91;223314;214;146395;-70
2023/05/10 22:34:56;;;;;;;;;;;;;;;13.51;42.96;99192.77;223460;182;138493;-71
2023/05/10 22:39:59;;;;;;;6.90;3.80;;;;;;;13.44;42.96;99192.02;223646;192;129188;-72
2023/05/10 22:45:03;;;;;;;8.00;4.20;;;;;;;13.38;43.17;99194.21;223631;214;144949;-71
2023/05/10 22:50:07;;;;;;;10.00;4.40;;;;;;;13.34;43.12;99195.55;223540;183;139253;-71
2023/05/10 22:55:11;;;;;;;6.60;4.30;;;;;;;13.31;43.18;99196.64;223586;182;136489;-73
2023/05/10 23:00:15;;;;;;;8.40;4.10;;;;;;;13.29;43.23;99200.94;223608;181;145217;-72
2023/05/10 23:05:19;;;;;;;9.30;4.10;;;;;;;13.27;43.35;99205.19;223717;214;138926;-71
2023/05/10 23:10:23;;;;;;;7.30;3.90;;;;;;;13.24;43.28;99203.58;223570;185;137473;-72
2023/05/10 23:15:27;;;;;;;6.70;3.60;;;;;;;13.20;43.23;99208.09;223740;203;145826;-72
2023/05/10 23:20:41;;;;;;;7.90;4.10;;;;;;;13.18;43.37;99204.88;223709;192;138063;-71
2023/05/10 23:25:44;;;;;;;12.50;4.60;;;;;;;13.15;43.35;99206.16;223209;188;137418;-71
2023/05/10 23:30:54;;;;;;;8.30;4.10;;;;;;;13.11;43.64;99207.52;223569;204;146381;-71
2023/05/10 23:35:58;;;;;;;9.30;3.90;;;;;;;13.07;43.65;99208.67;223509;215;138364;-73
2023/05/10 23:41:03;;;;;;;9.60;3.70;;;;;;;13.04;43.76;99214.21;223399;215;136619;-73
2023/05/10 23:46:08;;;;;;;9.10;3.50;;;;;;;13.01;43.94;99214.94;222737;215;145172;-72
2023/05/10 23:51:12;;;;;;;7.50;4.00;;;;;;;12.97;43.86;99214.86;223587;191;138716;-73
2023/05/10 23:56:16;;;;;;;6.00;3.60;;;;;;;12.94;44.19;99219.70;223163;182;136559;-74
